Terminal Aerodrome Forecast
Issued by NWS Sioux Falls, SD

Home | Current Version | Previous Version | Text Only | Print | Product List | Glossary Off
Versions: 1 2 3 4 5 6 7 8 9 10 11 12 13 14 15 16 17 18 19 20 21 22 23

423
FTUS43 KFSD 261140
TAFSUX
TAF
KSUX 261140Z 2612/2712 12005KT P6SM SKC
     FM261600 17009KT P6SM SKC
     FM270200 14005KT P6SM FEW250
     FM270800 13006KT P6SM SCT080 BKN250=

USA.gov is the U.S. government's official web portal to all federal, state and local government web resources and services.